Disclaimer

Please do not use the information listed here in-flight or in-navigation, as they are not provided to us by the airports but are provided by volunteers, so they might be outdated.

Search


Regions


Airport information page

No radio frequency information is available.

Airport informations:
Latitude: 02° 26' 40.15" S
Longitude: 032° 55' 57.60" E
Elevation: 3763 feet - 1147 meters
Operating hours: Remarks
Operating agency: Civil government, landing fees and diplomatic clearance may be required
Timezone: UTC+3
Fuel: Jet A1, without icing nhibitor.

100/130 MIL Spec, low lead, aviation gasoline (BLUE)

Runway information:
12/30 - 10212 x 148 feet< - >3113 x 45 meters

Recent METARs:
HTMW 160000Z 09010KT 9999 FEW018 FEW019CB BKN090 19/17 Q1018 NOSIG
HTMW 160000Z 09010KT 9999 FEW018 FEW019CB BKN090 19/17 Q1018 NOSIG
HTMW 160300Z 18010KT 9999 TS FEW017 FEW018CB 20/18 Q1017 NOSIG

Airport on the map: